Time;durP1;ratioP1;P1;durP2;ratioP2;P2;SDS_P1;SDS_P2;PMS_P1;PMS_P2;Temp;Humidity;BMP_temperature;BMP_pressure;BME280_temperature;BME280_humidity;BME280_pressure;Samples;Min_cycle;Max_cycle;Signal;HPM_P1;HPM_P2
2022/06/24 00:01:17;;;;;;;6.90;6.17;;;;;;;20.26;100.00;99248.47;5045856;28;20580;-71
2022/06/24 00:03:45;;;;;;;7.03;6.53;;;;;;;20.25;100.00;99235.53;5051705;28;20208;-71
2022/06/24 00:06:14;;;;;;;7.17;6.43;;;;;;;20.32;100.00;99240.22;5051678;28;20268;-71
2022/06/24 00:08:53;;;;;;;7.63;6.40;;;;;;;20.33;100.00;99246.25;5051740;28;20198;-71
2022/06/24 00:11:25;;;;;;;14.80;6.67;;;;;;;20.36;100.00;99248.63;5051656;28;20589;-71
2022/06/24 00:13:52;;;;;;;7.70;6.70;;;;;;;20.37;100.00;99239.88;5051645;28;20224;-71
2022/06/24 00:16:18;;;;;;;13.10;6.47;;;;;;;20.40;100.00;99244.88;5046089;28;20211;-71
2022/06/24 00:18:46;;;;;;;6.23;5.73;;;;;;;20.29;100.00;99221.41;5051574;28;20203;-72
2022/06/24 00:21:14;;;;;;;8.30;5.80;;;;;;;20.40;100.00;99247.47;5051523;28;20199;-71
2022/06/24 00:23:41;;;;;;;7.50;6.80;;;;;;;20.39;100.00;99243.19;5050577;28;20219;-72
2022/06/24 00:26:10;;;;;;;8.93;6.13;;;;;;;20.40;100.00;99244.88;5044095;28;20281;-70
2022/06/24 00:28:37;;;;;;;8.23;7.30;;;;;;;20.40;100.00;99234.44;5051546;28;20203;-71
2022/06/24 00:31:08;;;;;;;7.13;6.53;;;;;;;20.40;100.00;99237.06;5039703;28;20196;-71
2022/06/24 00:33:36;;;;;;;8.00;6.97;;;;;;;20.30;100.00;99218.69;5046008;28;20195;-71
2022/06/24 00:36:06;;;;;;;6.63;6.00;;;;;;;20.39;100.00;99225.81;5051174;28;20205;-72
2022/06/24 00:38:34;;;;;;;7.93;7.33;;;;;;;20.37;100.00;99219.91;5050349;28;20293;-72
2022/06/24 00:41:03;;;;;;;10.80;7.17;;;;;;;20.39;100.00;99217.16;5049643;28;20668;-71
2022/06/24 00:43:35;;;;;;;8.57;7.10;;;;;;;20.37;100.00;99224.25;5047235;28;20717;-71
2022/06/24 00:46:09;;;;;;;7.40;6.50;;;;;;;20.29;100.00;99206.59;5050487;28;20208;-71
2022/06/24 00:48:38;;;;;;;10.20;8.00;;;;;;;20.26;100.00;99200.75;5037296;28;20200;-71
2022/06/24 00:51:07;;;;;;;8.20;7.27;;;;;;;20.37;100.00;99221.66;5051159;28;20562;-71
2022/06/24 00:53:46;;;;;;;7.70;6.73;;;;;;;20.32;100.00;99234.19;5045884;28;20207;-71
2022/06/24 00:56:15;;;;;;;8.53;7.60;;;;;;;20.27;100.00;99233.69;5047036;28;20633;-72
2022/06/24 00:58:53;;;;;;;8.67;7.70;;;;;;;20.18;100.00;99234.31;5050395;28;20210;-71
2022/06/24 01:01:27;;;;;;;7.63;6.90;;;;;;;20.15;100.00;99231.94;5043244;28;20204;-71
2022/06/24 01:03:56;;;;;;;7.90;7.20;;;;;;;20.11;100.00;99238.31;5051216;28;20221;-72
2022/06/24 01:06:23;;;;;;;7.63;6.93;;;;;;;20.07;100.00;99247.25;5040374;28;20202;-71
2022/06/24 01:08:50;;;;;;;6.30;5.90;;;;;;;20.02;100.00;99241.56;5047789;28;20620;-71
2022/06/24 01:11:24;;;;;;;6.57;5.80;;;;;;;19.99;100.00;99244.38;5054411;28;20580;-71
2022/06/24 01:13:52;;;;;;;7.20;6.50;;;;;;;19.99;100.00;99254.78;5051666;28;20196;-71
2022/06/24 01:16:21;;;;;;;7.07;6.07;;;;;;;20.00;100.00;99246.06;5052247;28;20584;-72
2022/06/24 01:18:51;;;;;;;6.67;6.07;;;;;;;19.98;100.00;99246.16;5054417;28;20223;-72
2022/06/24 01:21:32;;;;;;;6.80;5.80;;;;;;;19.95;100.00;99253.34;5054139;28;20208;-71
2022/06/24 01:24:07;;;;;;;6.13;5.57;;;;;;;19.93;100.00;99262.06;5046332;28;20222;-71
2022/06/24 01:26:34;;;;;;;7.00;6.30;;;;;;;19.90;100.00;99259.69;5038405;28;20218;-69
2022/06/24 01:29:01;;;;;;;7.03;6.07;;;;;;;19.92;100.00;99263.03;5051220;28;20194;-71
2022/06/24 01:31:28;;;;;;;6.53;5.93;;;;;;;19.80;100.00;99245.69;5051819;28;20203;-71
2022/06/24 01:33:55;;;;;;;7.77;5.50;;;;;;;19.88;100.00;99256.38;5042656;28;20581;-71
2022/06/24 01:36:22;;;;;;;5.17;4.87;;;;;;;19.88;100.00;99264.19;5046583;28;20194;-71
2022/06/24 01:38:51;;;;;;;5.87;4.77;;;;;;;19.70;100.00;99236.88;5054291;28;20229;-71
2022/06/24 01:41:18;;;;;;;7.07;6.33;;;;;;;19.82;100.00;99262.03;5054662;28;20913;-72
2022/06/24 01:43:45;;;;;;;6.67;5.93;;;;;;;19.76;100.00;99254.66;5045615;28;20273;-70
2022/06/24 01:46:12;;;;;;;6.90;6.13;;;;;;;19.72;100.00;99258.41;5049876;28;20203;-72
2022/06/24 01:48:39;;;;;;;7.87;5.93;;;;;;;19.69;100.00;99256.00;5054243;28;20257;-71
2022/06/24 01:51:08;;;;;;;5.97;5.20;;;;;;;19.66;100.00;99253.63;5054091;28;20204;-71
2022/06/24 01:53:35;;;;;;;6.57;6.03;;;;;;;19.65;100.00;99257.16;5054235;28;20193;-71
2022/06/24 01:56:04;;;;;;;7.03;6.30;;;;;;;19.47;100.00;99235.03;5054127;28;20280;-71
2022/06/24 01:58:30;;;;;;;8.43;5.73;;;;;;;19.46;100.00;99238.56;5053982;28;20205;-71
2022/06/24 02:00:57;;;;;;;4.90;4.37;;;;;;;19.54;100.00;99249.28;5053842;28;20213;-70
2022/06/24 02:03:24;;;;;;;5.37;4.70;;;;;;;19.39;100.00;99219.91;5054464;28;20225;-71
2022/06/24 02:05:52;;;;;;;8.93;5.47;;;;;;;19.52;100.00;99245.09;5053943;28;20200;-71
2022/06/24 02:08:19;;;;;;;8.47;5.83;;;;;;;19.51;100.00;99244.28;5050747;28;20669;-71
2022/06/24 02:13:31;;;;;;;6.33;5.90;;;;;;;19.40;100.00;99241.59;5044298;28;20715;-71
2022/06/24 02:16:01;;;;;;;7.93;5.83;;;;;;;19.48;100.00;99249.72;5048298;28;20685;-71
2022/06/24 02:18:29;;;;;;;6.40;5.80;;;;;;;19.45;100.00;99251.69;5051141;28;20576;-71
2022/06/24 02:20:57;;;;;;;6.03;5.53;;;;;;;19.44;100.00;99253.44;5052882;28;20202;-71
2022/06/24 02:23:26;;;;;;;6.23;5.40;;;;;;;19.45;100.00;99255.09;5051023;28;20662;-71
2022/06/24 02:25:54;;;;;;;6.93;6.30;;;;;;;19.39;100.00;99252.88;5053795;28;20201;-71
2022/06/24 02:28:21;;;;;;;7.07;6.30;;;;;;;19.38;100.00;99253.84;5042484;28;20671;-72
2022/06/24 02:30:53;;;;;;;6.70;6.10;;;;;;;19.34;100.00;99250.63;5053619;28;20204;-71
2022/06/24 02:33:20;;;;;;;6.10;5.53;;;;;;;19.23;100.00;99228.88;5053592;28;20267;-71
2022/06/24 02:35:47;;;;;;;6.37;5.83;;;;;;;19.30;100.00;99240.50;5053532;28;20194;-71
2022/06/24 02:38:14;;;;;;;5.90;5.50;;;;;;;19.27;100.00;99240.72;5042261;28;20609;-71
2022/06/24 02:40:47;;;;;;;7.33;6.60;;;;;;;19.25;100.00;99242.59;5050684;28;20208;-71
2022/06/24 02:43:17;;;;;;;6.67;6.13;;;;;;;19.23;100.00;99245.31;5047941;28;20283;-69
2022/06/24 02:45:45;;;;;;;6.77;6.17;;;;;;;19.22;100.00;99251.47;5047420;28;20222;-71
2022/06/24 02:48:14;;;;;;;7.10;6.53;;;;;;;19.21;100.00;99249.78;5041569;28;20213;-70
2022/06/24 02:50:42;;;;;;;6.83;6.07;;;;;;;19.20;100.00;99255.06;5038121;28;20197;-71
2022/06/24 02:53:09;;;;;;;7.17;6.13;;;;;;;19.21;100.00;99261.94;5053207;28;20209;-71
2022/06/24 02:55:37;;;;;;;7.23;6.63;;;;;;;19.21;100.00;99265.38;5053076;28;20204;-70
2022/06/24 02:58:05;;;;;;;6.93;6.23;;;;;;;19.18;100.00;99262.16;5053107;28;20203;-71
2022/06/24 03:00:32;;;;;;;6.97;6.30;;;;;;;19.01;100.00;99233.84;5042527;28;20209;-71
2022/06/24 03:02:59;;;;;;;7.10;6.43;;;;;;;19.05;100.00;99245.72;5051033;28;20224;-71
2022/06/24 03:05:28;;;;;;;6.60;6.00;;;;;;;18.98;100.00;99245.28;5053006;28;20206;-70
2022/06/24 03:07:55;;;;;;;6.40;5.20;;;;;;;18.91;100.00;99249.22;5044990;28;20197;-71
2022/06/24 03:10:23;;;;;;;5.97;5.57;;;;;;;18.86;100.00;99262.53;5053012;28;20194;-69
2022/06/24 03:12:49;;;;;;;9.63;6.07;;;;;;;18.85;100.00;99260.88;5053371;28;20728;-71
2022/06/24 03:15:16;;;;;;;5.47;5.13;;;;;;;18.80;100.00;99255.13;5052376;28;20201;-71
2022/06/24 03:17:43;;;;;;;5.53;5.13;;;;;;;18.85;100.00;99265.22;5052332;28;20198;-71
2022/06/24 03:20:11;;;;;;;5.67;5.23;;;;;;;18.91;100.00;99264.81;5049933;28;20205;-71
2022/06/24 03:22:39;;;;;;;5.43;5.07;;;;;;;18.95;100.00;99260.25;5052295;28;20212;-71
2022/06/24 03:25:08;;;;;;;4.57;4.17;;;;;;;18.96;100.00;99262.75;5049660;28;20202;-71
2022/06/24 03:27:36;;;;;;;4.63;4.30;;;;;;;18.85;100.00;99245.28;5051880;28;20207;-70
2022/06/24 03:30:04;;;;;;;10.90;4.93;;;;;;;18.97;100.00;99254.00;5052365;28;20200;-71
2022/06/24 03:32:32;;;;;;;5.00;4.70;;;;;;;18.99;100.00;99261.72;5052595;28;20688;-71
2022/06/24 03:34:59;;;;;;;6.70;5.27;;;;;;;18.95;100.00;99249.84;5050145;28;20199;-71
2022/06/24 03:37:26;;;;;;;5.83;5.20;;;;;;;19.05;100.00;99266.50;5044136;28;20212;-71
2022/06/24 03:39:55;;;;;;;5.43;5.00;;;;;;;19.07;100.00;99270.66;5052280;28;20206;-71
2022/06/24 03:42:22;;;;;;;5.73;5.33;;;;;;;19.01;100.00;99259.84;5044798;28;20213;-71
2022/06/24 03:44:49;;;;;;;4.30;4.10;;;;;;;19.12;100.00;99271.19;5042338;28;20200;-70
2022/06/24 03:47:15;;;;;;;5.23;4.67;;;;;;;19.15;100.00;99277.94;5052559;28;20212;-70
2022/06/24 03:49:43;;;;;;;5.67;5.17;;;;;;;19.12;100.00;99268.59;5052192;28;20214;-71
2022/06/24 03:52:10;;;;;;;5.10;4.70;;;;;;;19.11;100.00;99268.69;5042611;28;20198;-71
2022/06/24 03:54:38;;;;;;;5.17;4.67;;;;;;;19.10;100.00;99265.25;5047042;28;20199;-71
2022/06/24 03:57:07;;;;;;;4.93;4.50;;;;;;;19.13;100.00;99261.59;5052292;28;20206;-71
2022/06/24 03:59:33;;;;;;;4.37;4.07;;;;;;;19.16;100.00;99264.03;5052099;28;20212;-71
2022/06/24 04:02:00;;;;;;;4.47;4.17;;;;;;;19.22;100.00;99268.81;5052036;28;20751;-71
2022/06/24 04:04:27;;;;;;;5.33;4.93;;;;;;;19.27;100.00;99261.53;5051975;28;20216;-71
2022/06/24 04:06:54;;;;;;;7.53;4.13;;;;;;;19.33;100.00;99263.69;5051929;28;20235;-70
2022/06/24 04:09:22;;;;;;;4.80;4.50;;;;;;;19.37;100.00;99257.38;5049334;28;20207;-71
2022/06/24 04:11:49;;;;;;;4.20;4.00;;;;;;;19.43;100.00;99256.97;5052085;28;20202;-71
2022/06/24 04:15:13;;;;;;;4.00;3.80;;;;;;;19.48;100.00;99254.06;5051781;28;20199;-71
2022/06/24 04:17:06;;;;;;;4.40;4.10;;;;;;;19.50;100.00;99247.81;5051629;28;20305;-71
2022/06/24 04:19:36;;;;;;;4.30;4.00;;;;;;;19.48;100.00;99244.50;5035452;28;20201;-71
2022/06/24 04:22:03;;;;;;;5.23;4.40;;;;;;;19.52;100.00;99239.91;5049704;28;20675;-71
2022/06/24 04:24:30;;;;;;;4.43;4.10;;;;;;;19.56;100.00;99242.19;5051759;28;20221;-71
2022/06/24 04:26:57;;;;;;;4.07;3.80;;;;;;;19.61;100.00;99240.09;5051482;28;20195;-70
2022/06/24 04:29:25;;;;;;;4.17;3.97;;;;;;;19.67;100.00;99244.88;5051803;28;20198;-71
2022/06/24 04:31:52;;;;;;;4.03;3.73;;;;;;;19.72;100.00;99252.34;5040699;28;20216;-71
2022/06/24 04:34:19;;;;;;;3.73;3.53;;;;;;;19.81;100.00;99251.72;5051530;28;20273;-71
2022/06/24 04:36:46;;;;;;;4.73;3.60;;;;;;;19.89;100.00;99245.03;5045296;28;20577;-71
2022/06/24 04:39:13;;;;;;;4.33;4.00;;;;;;;20.01;100.00;99247.69;5048582;28;20226;-67
2022/06/24 04:41:40;;;;;;;5.00;4.70;;;;;;;20.12;100.00;99251.22;5050819;28;20204;-67
2022/06/24 04:44:07;;;;;;;4.43;4.13;;;;;;;20.31;100.00;99245.53;5049830;28;20600;-67
2022/06/24 04:46:35;;;;;;;4.40;4.10;;;;;;;20.48;100.00;99237.34;5050449;28;20200;-67
2022/06/24 04:49:02;;;;;;;4.23;4.03;;;;;;;20.71;100.00;99239.06;5050807;28;20204;-67
2022/06/24 04:51:29;;;;;;;4.03;3.70;;;;;;;20.96;100.00;99232.88;5049184;28;20268;-67
2022/06/24 04:53:56;;;;;;;5.20;4.37;;;;;;;21.24;100.00;99226.41;5047020;28;20197;-67
2022/06/24 04:56:23;;;;;;;4.37;4.03;;;;;;;21.51;100.00;99229.50;5047213;28;20201;-67
2022/06/24 04:58:50;;;;;;;4.80;3.93;;;;;;;21.79;100.00;99236.84;5048433;28;20588;-67
2022/06/24 05:01:17;;;;;;;4.23;3.93;;;;;;;22.06;100.00;99235.63;5048719;28;20209;-67
2022/06/24 05:03:45;;;;;;;4.30;4.00;;;;;;;22.26;100.00;99243.50;5050418;28;20216;-67
2022/06/24 05:06:12;;;;;;;4.07;3.87;;;;;;;22.32;99.10;99237.81;5049328;28;20200;-67
2022/06/24 05:08:39;;;;;;;4.20;3.90;;;;;;;22.39;99.46;99206.81;5048668;28;20203;-67
2022/06/24 05:11:07;;;;;;;3.80;3.27;;;;;;;22.82;96.97;99231.09;5050182;28;20207;-67
2022/06/24 05:13:33;;;;;;;3.93;3.73;;;;;;;23.13;93.69;99252.06;5050393;28;20223;-67
2022/06/24 05:16:00;;;;;;;4.23;4.03;;;;;;;23.40;94.38;99254.97;5049147;28;20204;-67
2022/06/24 05:18:27;;;;;;;4.23;3.97;;;;;;;23.67;92.85;99262.25;5048919;28;20197;-67
2022/06/24 05:20:55;;;;;;;6.20;3.93;;;;;;;23.87;91.19;99267.44;5049493;28;20207;-67
2022/06/24 05:23:22;;;;;;;3.50;3.30;;;;;;;24.19;87.84;99276.91;5050022;28;20298;-67
2022/06/24 05:25:49;;;;;;;4.10;3.73;;;;;;;24.36;89.16;99276.25;5047328;28;20203;-67
2022/06/24 05:28:16;;;;;;;6.10;3.67;;;;;;;24.56;85.61;99288.41;5050128;28;20576;-67
2022/06/24 05:30:43;;;;;;;4.63;4.07;;;;;;;24.60;87.82;99287.16;5046858;28;20200;-67
2022/06/24 05:33:09;;;;;;;3.30;3.07;;;;;;;24.79;87.84;99287.16;5048682;28;20947;-68
2022/06/24 05:35:37;;;;;;;3.77;3.60;;;;;;;24.93;86.04;99283.31;5048613;28;20299;-68
2022/06/24 05:38:05;;;;;;;2.67;2.57;;;;;;;25.18;81.96;99284.53;5048255;28;20242;-68
2022/06/24 05:40:32;;;;;;;3.40;3.10;;;;;;;25.43;82.46;99283.91;5048049;28;20205;-68
2022/06/24 05:42:59;;;;;;;4.30;3.70;;;;;;;25.59;79.51;99286.78;5048703;28;20208;-68
2022/06/24 05:45:27;;;;;;;4.40;3.30;;;;;;;25.81;80.59;99281.19;5048503;28;20197;-68
2022/06/24 05:47:54;;;;;;;3.17;3.07;;;;;;;25.99;78.70;99278.59;5048421;28;20668;-68
2022/06/24 05:50:21;;;;;;;3.03;2.83;;;;;;;26.21;75.98;99272.94;5045392;28;20753;-68
2022/06/24 05:55:34;;;;;;;3.10;2.90;;;;;;;26.52;74.43;99266.38;5049877;28;20204;-68
2022/06/24 05:58:01;;;;;;;2.80;2.70;;;;;;;26.86;73.22;99274.41;5051422;28;20526;-68
2022/06/24 06:00:28;;;;;;;2.73;2.63;;;;;;;27.04;73.40;99271.78;5052323;28;20197;-68
2022/06/24 06:02:54;;;;;;;2.60;2.50;;;;;;;27.26;73.13;99273.88;5052385;28;20223;-68
2022/06/24 06:05:21;;;;;;;2.40;2.30;;;;;;;27.35;72.13;99275.59;5052964;28;20581;-69
2022/06/24 06:07:48;;;;;;;2.83;2.73;;;;;;;27.45;70.48;99286.03;5052960;28;20208;-69
2022/06/24 06:10:15;;;;;;;2.67;2.53;;;;;;;27.57;70.08;99290.03;5048504;28;20209;-68
2022/06/24 06:12:43;;;;;;;2.30;2.20;;;;;;;27.73;68.99;99290.13;5051939;28;20711;-67
2022/06/24 06:15:11;;;;;;;2.90;2.80;;;;;;;27.89;72.18;99290.19;5051564;28;20197;-65
2022/06/24 06:17:37;;;;;;;2.73;2.63;;;;;;;28.00;66.94;99297.81;5052131;28;20248;-66
2022/06/24 06:20:05;;;;;;;3.00;2.90;;;;;;;27.75;67.43;99297.88;5052437;28;20612;-66
2022/06/24 06:22:33;;;;;;;2.90;2.60;;;;;;;27.98;67.67;99297.16;5052648;28;20209;-66
2022/06/24 06:25:00;;;;;;;2.90;2.80;;;;;;;28.26;70.21;99291.66;5052711;28;20707;-66
2022/06/24 06:27:26;;;;;;;2.60;2.50;;;;;;;28.23;66.99;99290.19;5048048;28;20200;-66
2022/06/24 06:29:55;;;;;;;3.17;2.50;;;;;;;28.40;67.73;99298.97;5051561;28;20304;-66
2022/06/24 06:32:22;;;;;;;2.77;2.57;;;;;;;28.65;67.56;99298.88;5051682;28;20208;-66
2022/06/24 06:34:50;;;;;;;6.67;2.30;;;;;;;28.91;64.81;99306.63;5051986;28;20201;-66
2022/06/24 06:37:17;;;;;;;2.90;2.78;;;;;;;29.18;65.50;99308.91;5052668;28;20201;-66
2022/06/24 06:39:43;;;;;;;1.90;1.80;;;;;;;29.14;63.31;99277.75;5051817;28;20229;-66
2022/06/24 06:42:10;;;;;;;2.25;2.05;;;;;;;29.34;65.01;99309.94;5052353;28;20326;-66
2022/06/24 06:44:37;;;;;;;3.65;2.47;;;;;;;29.40;64.89;99317.19;5051789;28;20314;-66
2022/06/24 06:47:06;;;;;;;2.30;2.20;;;;;;;29.56;65.49;99315.34;5050278;28;20580;-65
2022/06/24 06:49:33;;;;;;;2.25;2.15;;;;;;;29.51;65.67;99306.25;5044287;28;20226;-66
2022/06/24 06:52:01;;;;;;;3.55;2.40;;;;;;;29.59;64.84;99303.59;5045184;28;20200;-66
2022/06/24 06:54:30;;;;;;;2.78;2.65;;;;;;;29.72;67.67;99303.91;5051706;28;20283;-66
2022/06/24 06:56:57;;;;;;;2.60;2.40;;;;;;;29.81;64.73;99302.84;5052057;28;20213;-66
2022/06/24 06:59:25;;;;;;;1.67;1.58;;;;;;;29.95;61.91;99306.66;5051731;28;20204;-66
2022/06/24 07:01:52;;;;;;;2.25;2.15;;;;;;;30.19;61.28;99307.34;5050889;28;20230;-66
2022/06/24 07:04:21;;;;;;;2.20;2.10;;;;;;;30.30;64.18;99306.13;5047821;28;20228;-66
2022/06/24 07:06:53;;;;;;;2.35;2.10;;;;;;;30.63;61.26;99307.59;5049254;28;20275;-66
2022/06/24 07:09:20;;;;;;;2.08;1.98;;;;;;;30.76;65.01;99304.34;5050963;28;20209;-66
2022/06/24 07:11:48;;;;;;;3.63;2.47;;;;;;;30.76;63.31;99300.91;5051658;28;20270;-66
2022/06/24 07:14:15;;;;;;;3.83;2.63;;;;;;;30.63;60.11;99301.50;5050039;28;20206;-66
2022/06/24 07:16:42;;;;;;;2.45;2.35;;;;;;;30.34;63.93;99298.69;5052054;28;20200;-65
2022/06/24 07:19:09;;;;;;;2.33;2.20;;;;;;;30.36;63.58;99291.38;5051371;28;20207;-66
2022/06/24 07:21:38;;;;;;;2.42;2.25;;;;;;;30.40;61.85;99298.00;5050040;28;20247;-66
2022/06/24 07:24:06;;;;;;;5.75;2.20;;;;;;;30.30;63.12;99292.09;5050336;28;20221;-67
2022/06/24 07:26:32;;;;;;;2.40;2.20;;;;;;;30.55;61.37;99288.31;5050488;28;20227;-66
2022/06/24 07:29:00;;;;;;;2.20;2.10;;;;;;;30.57;61.87;99283.66;5053062;28;20223;-66
2022/06/24 07:31:27;;;;;;;1.80;1.70;;;;;;;30.59;63.63;99281.66;5049855;28;20289;-66
2022/06/24 07:33:54;;;;;;;2.33;2.22;;;;;;;30.84;61.24;99279.66;5048536;28;20219;-66
2022/06/24 07:36:21;;;;;;;2.75;2.55;;;;;;;31.15;60.16;99273.25;5043802;28;20200;-66
2022/06/24 07:38:50;;;;;;;2.95;2.75;;;;;;;31.03;60.99;99266.75;5050809;28;20624;-65
2022/06/24 07:41:17;;;;;;;6.88;1.95;;;;;;;31.00;62.26;99269.78;5050027;28;20205;-65
2022/06/24 07:43:44;;;;;;;4.03;2.38;;;;;;;31.12;63.74;99263.03;5051058;28;20745;-66
2022/06/24 07:46:12;;;;;;;2.95;2.60;;;;;;;31.20;60.71;99262.97;5050806;28;20201;-66
2022/06/24 07:48:39;;;;;;;2.55;2.45;;;;;;;31.15;60.01;99267.97;5051403;28;20323;-66
2022/06/24 07:51:11;;;;;;;2.10;1.98;;;;;;;31.29;56.61;99270.81;5051412;28;20676;-66
2022/06/24 07:53:38;;;;;;;2.25;2.13;;;;;;;31.44;55.71;99263.72;5051687;28;20638;-65
2022/06/24 07:58:51;;;;;;;2.65;2.55;;;;;;;31.69;55.67;99260.63;5050802;28;20246;-66
2022/06/24 08:01:21;;;;;;;2.33;2.22;;;;;;;31.93;57.36;99240.91;5046942;28;20204;-66
2022/06/24 08:03:49;;;;;;;3.15;2.95;;;;;;;31.85;56.22;99256.13;5050546;28;20205;-65
2022/06/24 08:06:17;;;;;;;2.45;2.35;;;;;;;31.98;55.48;99259.75;5049959;28;20293;-66
2022/06/24 08:08:46;;;;;;;2.92;2.75;;;;;;;31.86;55.85;99255.13;5049463;28;20292;-66
2022/06/24 08:11:14;;;;;;;2.45;2.35;;;;;;;32.04;58.89;99264.34;5049714;28;20213;-66
2022/06/24 08:13:41;;;;;;;3.92;2.08;;;;;;;31.98;56.89;99269.53;5049990;28;20205;-65
2022/06/24 08:16:08;;;;;;;1.90;1.80;;;;;;;31.60;60.10;99235.19;5045453;28;20209;-65
2022/06/24 08:18:35;;;;;;;2.55;2.45;;;;;;;31.77;55.25;99267.63;5044511;28;20568;-65
2022/06/24 08:21:02;;;;;;;2.22;2.13;;;;;;;32.05;55.94;99260.66;5049891;28;20197;-66
2022/06/24 08:23:29;;;;;;;2.55;2.35;;;;;;;32.02;55.43;99268.97;5049823;28;20207;-66
2022/06/24 08:25:56;;;;;;;2.85;2.75;;;;;;;31.93;53.46;99272.72;5042901;28;20236;-65
2022/06/24 08:28:24;;;;;;;2.72;2.50;;;;;;;31.90;58.66;99267.81;5050119;28;20211;-66
2022/06/24 08:30:51;;;;;;;4.15;2.53;;;;;;;31.91;58.53;99264.16;5050120;28;20197;-66
2022/06/24 08:33:18;;;;;;;4.22;1.92;;;;;;;32.00;55.90;99252.41;5049361;28;20205;-65
2022/06/24 08:35:45;;;;;;;2.63;2.42;;;;;;;32.30;55.19;99255.84;5049681;28;20258;-65
2022/06/24 08:38:11;;;;;;;2.90;2.60;;;;;;;32.60;54.82;99253.94;5049025;28;20240;-65
2022/06/24 08:40:38;;;;;;;2.20;2.10;;;;;;;32.72;51.77;99253.22;5049266;28;20205;-65
2022/06/24 08:43:06;;;;;;;2.28;2.17;;;;;;;32.25;51.34;99245.78;5048693;28;20220;-65
2022/06/24 08:45:34;;;;;;;1.92;1.83;;;;;;;31.98;53.66;99243.84;5049337;28;20596;-65
2022/06/24 08:48:01;;;;;;;2.55;2.40;;;;;;;32.28;53.27;99255.19;5046239;28;20554;-65
2022/06/24 08:50:28;;;;;;;3.10;1.95;;;;;;;32.38;55.35;99250.41;5048250;28;20294;-65
2022/06/24 08:52:56;;;;;;;2.13;1.80;;;;;;;32.56;52.34;99257.94;5049596;28;20228;-66
2022/06/24 08:55:23;;;;;;;2.20;2.10;;;;;;;32.60;50.70;99248.63;5049565;28;20284;-68
2022/06/24 08:57:50;;;;;;;1.88;1.77;;;;;;;32.68;46.95;99253.78;5050192;28;20530;-65
2022/06/24 09:00:19;;;;;;;3.70;2.35;;;;;;;32.67;50.83;99255.63;5049760;28;20204;-65
2022/06/24 09:02:47;;;;;;;2.65;2.40;;;;;;;32.77;50.70;99252.63;5049598;28;20216;-66
2022/06/24 09:05:15;;;;;;;2.13;1.85;;;;;;;32.94;48.87;99246.03;5049933;28;20753;-64
2022/06/24 09:07:42;;;;;;;2.30;2.15;;;;;;;32.82;44.39;99234.31;5049939;28;20211;-65
2022/06/24 09:10:12;;;;;;;3.47;1.90;;;;;;;32.96;45.50;99244.00;5049069;28;20224;-65
2022/06/24 09:12:40;;;;;;;1.80;1.70;;;;;;;33.10;49.10;99251.09;5049942;28;20236;-65
2022/06/24 09:15:09;;;;;;;1.92;1.83;;;;;;;33.11;44.66;99254.56;5046283;28;20592;-64
2022/06/24 09:17:36;;;;;;;4.22;2.10;;;;;;;33.10;49.04;99235.16;5045297;28;20197;-65
2022/06/24 09:20:10;;;;;;;2.33;2.22;;;;;;;33.21;47.05;99247.91;5044180;28;20200;-65
2022/06/24 09:22:37;;;;;;;2.25;1.83;;;;;;;33.31;47.51;99230.78;5045050;28;20204;-65
2022/06/24 09:25:06;;;;;;;2.10;2.00;;;;;;;33.25;49.48;99237.69;5049801;28;20227;-65
2022/06/24 09:27:33;;;;;;;1.70;1.70;;;;;;;33.28;46.83;99238.13;5048771;28;20580;-65
2022/06/24 09:30:01;;;;;;;1.95;1.85;;;;;;;33.33;46.04;99234.06;5044725;28;20204;-65
2022/06/24 09:32:29;;;;;;;1.67;1.67;;;;;;;33.37;48.02;99230.81;5050142;28;20561;-66
2022/06/24 09:35:03;;;;;;;2.53;1.95;;;;;;;33.47;48.87;99230.47;5052410;28;20216;-66
2022/06/24 09:37:43;;;;;;;1.92;1.65;;;;;;;33.25;45.23;99238.50;5051995;28;20730;-66
2022/06/24 09:40:22;;;;;;;1.73;1.60;;;;;;;32.95;43.41;99242.38;5050966;28;20439;-65
2022/06/24 09:42:53;;;;;;;1.73;1.63;;;;;;;32.77;45.00;99234.03;5051784;28;20200;-65
2022/06/24 09:45:20;;;;;;;1.95;1.85;;;;;;;32.73;42.30;99233.59;5047954;28;20592;-65
2022/06/24 09:47:49;;;;;;;2.03;1.92;;;;;;;33.00;43.84;99239.94;5053568;28;20200;-65
2022/06/24 09:50:16;;;;;;;1.88;1.77;;;;;;;32.88;46.69;99238.84;5053138;28;20208;-65
2022/06/24 09:52:44;;;;;;;1.58;1.48;;;;;;;32.90;44.04;99239.47;5055358;28;20580;-65
2022/06/24 09:55:12;;;;;;;1.90;1.80;;;;;;;33.06;42.65;99223.22;5047148;28;20197;-65
2022/06/24 09:57:39;;;;;;;1.40;1.40;;;;;;;33.21;42.83;99231.13;5052678;28;20642;-65
2022/06/24 10:02:53;;;;;;;1.50;1.40;;;;;;;33.35;39.82;99224.88;5052030;28;20262;-65
2022/06/24 10:05:21;;;;;;;1.75;1.65;;;;;;;33.32;43.23;99227.91;5045962;28;20220;-65
2022/06/24 10:07:49;;;;;;;1.60;1.48;;;;;;;33.33;42.58;99226.91;5052647;28;20665;-65
2022/06/24 10:10:17;;;;;;;1.80;1.73;;;;;;;33.56;43.70;99223.97;5053180;28;20205;-65
2022/06/24 10:12:50;;;;;;;1.42;1.38;;;;;;;33.68;41.32;99227.72;5052699;28;20262;-65
2022/06/24 10:15:18;;;;;;;2.30;1.75;;;;;;;33.63;42.72;99227.50;5049270;28;20450;-64
2022/06/24 10:17:47;;;;;;;2.10;2.03;;;;;;;33.77;40.72;99221.19;5043878;28;20216;-65
2022/06/24 10:20:15;;;;;;;1.65;1.55;;;;;;;33.85;44.09;99222.88;5052314;28;20216;-65
2022/06/24 10:22:45;;;;;;;1.70;1.60;;;;;;;33.73;41.53;99222.66;5052191;28;20634;-65
2022/06/24 10:25:18;;;;;;;1.55;1.45;;;;;;;33.63;39.21;99224.84;5047740;28;20308;-65
2022/06/24 10:28:09;;;;;;;1.70;1.70;;;;;;;33.79;41.90;99219.19;5052231;28;20290;-65
2022/06/24 10:30:58;;;;;;;1.40;1.30;;;;;;;33.92;37.34;99221.88;5052047;28;20201;-65
2022/06/24 10:33:29;;;;;;;4.88;1.42;;;;;;;33.85;40.78;99218.38;5050374;28;20201;-64
2022/06/24 10:36:04;;;;;;;1.77;1.67;;;;;;;33.97;40.81;99215.94;5051557;28;20266;-65
2022/06/24 10:38:38;;;;;;;1.55;1.45;;;;;;;33.80;40.06;99218.16;5050258;28;20228;-65
2022/06/24 10:41:08;;;;;;;3.17;1.80;;;;;;;33.47;37.76;99220.66;5048864;28;20295;-65
2022/06/24 10:43:38;;;;;;;1.63;1.50;;;;;;;33.52;34.84;99220.06;5051548;28;20219;-65
2022/06/24 10:46:18;;;;;;;1.45;1.40;;;;;;;33.66;36.66;99216.47;5049762;28;20215;-65
2022/06/24 10:49:02;;;;;;;2.35;2.15;;;;;;;33.65;40.43;99215.66;5049901;28;20192;-64
2022/06/24 10:51:32;;;;;;;1.60;1.50;;;;;;;33.71;36.57;99214.03;5049163;28;20208;-65
2022/06/24 10:54:17;;;;;;;1.77;1.55;;;;;;;33.80;36.50;99212.81;5051953;28;20211;-64
2022/06/24 10:56:49;;;;;;;1.48;1.48;;;;;;;33.70;35.78;99209.75;5048689;28;20572;-64
2022/06/24 10:59:19;;;;;;;1.40;1.08;;;;;;;33.72;35.93;99221.00;5051350;28;20629;-65
2022/06/24 11:01:47;;;;;;;1.25;1.17;;;;;;;33.19;32.65;99223.34;5050561;28;20209;-65
2022/06/24 11:04:22;;;;;;;2.55;1.50;;;;;;;33.33;40.09;99224.25;5050711;28;20207;-64
2022/06/24 11:07:12;;;;;;;2.17;1.50;;;;;;;33.46;39.08;99223.50;5051010;28;20220;-64
2022/06/24 11:09:39;;;;;;;1.55;1.20;;;;;;;33.52;41.05;99223.53;5054152;28;20554;-65
2022/06/24 11:12:29;;;;;;;2.15;1.40;;;;;;;33.41;41.21;99228.59;5052465;28;20204;-63
2022/06/24 11:14:56;;;;;;;2.28;1.23;;;;;;;33.48;38.92;99227.59;5046246;28;20200;-65
2022/06/24 11:17:25;;;;;;;1.20;1.10;;;;;;;33.60;35.99;99223.41;5038926;28;20201;-65
2022/06/24 11:19:52;;;;;;;1.33;1.30;;;;;;;33.46;34.76;99228.81;5052071;28;20189;-64
2022/06/24 11:22:20;;;;;;;2.25;1.00;;;;;;;33.17;34.92;99214.75;5052317;28;20197;-65
2022/06/24 11:24:49;;;;;;;1.00;1.00;;;;;;;33.19;38.33;99228.66;5042605;28;20199;-64
2022/06/24 11:27:16;;;;;;;2.65;1.50;;;;;;;33.35;39.88;99216.91;5051127;28;20247;-64
2022/06/24 11:29:54;;;;;;;1.15;1.15;;;;;;;33.48;36.71;99229.44;5042223;28;20197;-64
2022/06/24 11:32:21;;;;;;;1.20;1.20;;;;;;;33.56;33.54;99234.59;5052376;28;20200;-65
2022/06/24 11:34:49;;;;;;;0.90;0.90;;;;;;;33.66;35.16;99235.91;5046689;28;20201;-64
2022/06/24 11:37:22;;;;;;;1.05;1.05;;;;;;;33.71;33.41;99228.16;5050730;28;20204;-65
2022/06/24 11:39:52;;;;;;;1.63;1.13;;;;;;;33.78;34.87;99225.50;5049679;28;20270;-64
2022/06/24 11:42:20;;;;;;;1.25;1.25;;;;;;;33.80;36.14;99235.97;5050618;28;20251;-64
2022/06/24 11:44:46;;;;;;;1.27;1.27;;;;;;;33.73;35.60;99227.97;5051337;28;20201;-64
2022/06/24 11:47:15;;;;;;;1.23;1.23;;;;;;;33.77;36.95;99219.38;5051802;28;20604;-64